sensor_id;sensor_type;location;lat;lon;timestamp;temperature;humidity
53748;DHT22;39655;53.210;5.768;2023-07-28T00:00:52;18.10;98.70
53748;DHT22;39655;53.210;5.768;2023-07-28T00:03:18;18.10;98.70
53748;DHT22;39655;53.210;5.768;2023-07-28T00:05:49;18.10;98.70
53748;DHT22;39655;53.210;5.768;2023-07-28T00:08:18;18.10;98.70
53748;DHT22;39655;53.210;5.768;2023-07-28T00:10:44;18.10;98.70
53748;DHT22;39655;53.210;5.768;2023-07-28T00:13:17;18.10;98.70
53748;DHT22;39655;53.210;5.768;2023-07-28T00:15:42;18.10;98.70
53748;DHT22;39655;53.210;5.768;2023-07-28T00:18:14;18.10;98.70
53748;DHT22;39655;53.210;5.768;2023-07-28T00:20:44;18.10;98.70
53748;DHT22;39655;53.210;5.768;2023-07-28T00:23:12;18.10;98.70
53748;DHT22;39655;53.210;5.768;2023-07-28T00:25:57;18.10;98.70
53748;DHT22;39655;53.210;5.768;2023-07-28T00:28:37;18.10;98.70
53748;DHT22;39655;53.210;5.768;2023-07-28T00:31:03;18.10;98.70
53748;DHT22;39655;53.210;5.768;2023-07-28T00:33:34;18.10;98.70
53748;DHT22;39655;53.210;5.768;2023-07-28T00:58:07;18.00;98.70
53748;DHT22;39655;53.210;5.768;2023-07-28T01:54:47;17.90;98.90
53748;DHT22;39655;53.210;5.768;2023-07-28T01:57:39;17.90;98.80
53748;DHT22;39655;53.210;5.768;2023-07-28T02:03:56;17.80;98.80
53748;DHT22;39655;53.210;5.768;2023-07-28T02:13:55;17.80;98.80
53748;DHT22;39655;53.210;5.768;2023-07-28T02:22:55;17.70;98.80
53748;DHT22;39655;53.210;5.768;2023-07-28T02:29:26;17.70;98.80
53748;DHT22;39655;53.210;5.768;2023-07-28T02:33:07;17.70;98.80
53748;DHT22;39655;53.210;5.768;2023-07-28T02:36:55;17.70;98.80
53748;DHT22;39655;53.210;5.768;2023-07-28T02:43:40;17.80;98.90
53748;DHT22;39655;53.210;5.768;2023-07-28T02:46:51;17.80;98.90
53748;DHT22;39655;53.210;5.768;2023-07-28T02:49:37;17.80;98.90
53748;DHT22;39655;53.210;5.768;2023-07-28T02:52:34;17.80;98.90
53748;DHT22;39655;53.210;5.768;2023-07-28T02:55:31;17.80;99.00
53748;DHT22;39655;53.210;5.768;2023-07-28T02:58:13;17.80;99.00
53748;DHT22;39655;53.210;5.768;2023-07-28T03:01:05;17.90;99.00
53748;DHT22;39655;53.210;5.768;2023-07-28T03:03:42;17.90;99.00
53748;DHT22;39655;53.210;5.768;2023-07-28T03:06:34;17.80;99.00
53748;DHT22;39655;53.210;5.768;2023-07-28T03:09:35;17.90;99.00
53748;DHT22;39655;53.210;5.768;2023-07-28T03:12:10;17.90;99.00
53748;DHT22;39655;53.210;5.768;2023-07-28T03:15:01;17.80;99.00
53748;DHT22;39655;53.210;5.768;2023-07-28T03:17:33;17.80;99.00
53748;DHT22;39655;53.210;5.768;2023-07-28T03:20:23;17.80;99.00
53748;DHT22;39655;53.210;5.768;2023-07-28T03:23:08;17.80;99.00
53748;DHT22;39655;53.210;5.768;2023-07-28T03:26:00;17.80;99.00
53748;DHT22;39655;53.210;5.768;2023-07-28T03:28:48;17.80;99.00
53748;DHT22;39655;53.210;5.768;2023-07-28T03:31:36;17.80;99.00
53748;DHT22;39655;53.210;5.768;2023-07-28T03:34:25;17.80;99.10
53748;DHT22;39655;53.210;5.768;2023-07-28T03:37:03;17.90;99.10
53748;DHT22;39655;53.210;5.768;2023-07-28T03:39:32;17.80;99.00
53748;DHT22;39655;53.210;5.768;2023-07-28T03:41:58;17.80;99.00
53748;DHT22;39655;53.210;5.768;2023-07-28T03:44:25;17.90;99.10
53748;DHT22;39655;53.210;5.768;2023-07-28T03:46:53;17.90;99.10
53748;DHT22;39655;53.210;5.768;2023-07-28T03:49:22;17.90;99.10
53748;DHT22;39655;53.210;5.768;2023-07-28T03:51:49;17.90;99.10
53748;DHT22;39655;53.210;5.768;2023-07-28T03:54:18;17.80;99.10
53748;DHT22;39655;53.210;5.768;2023-07-28T03:56:47;17.90;99.10
53748;DHT22;39655;53.210;5.768;2023-07-28T03:59:16;17.90;99.10
53748;DHT22;39655;53.210;5.768;2023-07-28T04:01:48;17.90;99.20
53748;DHT22;39655;53.210;5.768;2023-07-28T04:04:28;17.90;99.10
53748;DHT22;39655;53.210;5.768;2023-07-28T04:06:54;17.90;99.20
53748;DHT22;39655;53.210;5.768;2023-07-28T04:09:20;17.90;99.20
53748;DHT22;39655;53.210;5.768;2023-07-28T04:11:46;17.90;99.20
53748;DHT22;39655;53.210;5.768;2023-07-28T04:14:13;17.90;99.20
53748;DHT22;39655;53.210;5.768;2023-07-28T04:16:40;18.00;99.20
53748;DHT22;39655;53.210;5.768;2023-07-28T04:19:11;17.90;99.20
53748;DHT22;39655;53.210;5.768;2023-07-28T04:21:37;17.90;99.20
53748;DHT22;39655;53.210;5.768;2023-07-28T04:24:09;17.90;99.20
53748;DHT22;39655;53.210;5.768;2023-07-28T04:26:35;17.90;99.20
53748;DHT22;39655;53.210;5.768;2023-07-28T04:29:01;17.90;99.20
53748;DHT22;39655;53.210;5.768;2023-07-28T04:31:27;17.80;99.10
53748;DHT22;39655;53.210;5.768;2023-07-28T04:33:53;17.90;99.20
53748;DHT22;39655;53.210;5.768;2023-07-28T04:36:19;17.80;99.10
53748;DHT22;39655;53.210;5.768;2023-07-28T04:38:45;17.90;99.10
53748;DHT22;39655;53.210;5.768;2023-07-28T04:41:11;17.80;99.10
53748;DHT22;39655;53.210;5.768;2023-07-28T04:43:37;17.80;99.10
53748;DHT22;39655;53.210;5.768;2023-07-28T04:46:03;17.80;99.10
53748;DHT22;39655;53.210;5.768;2023-07-28T04:48:29;17.80;99.10
53748;DHT22;39655;53.210;5.768;2023-07-28T04:50:58;17.80;99.10
53748;DHT22;39655;53.210;5.768;2023-07-28T04:53:24;17.80;99.10
53748;DHT22;39655;53.210;5.768;2023-07-28T04:55:52;17.90;99.10
53748;DHT22;39655;53.210;5.768;2023-07-28T04:58:18;17.90;99.10
53748;DHT22;39655;53.210;5.768;2023-07-28T05:00:44;17.90;99.10
53748;DHT22;39655;53.210;5.768;2023-07-28T05:03:10;17.90;99.10
53748;DHT22;39655;53.210;5.768;2023-07-28T05:05:36;17.90;99.10
53748;DHT22;39655;53.210;5.768;2023-07-28T05:08:02;17.90;99.10
53748;DHT22;39655;53.210;5.768;2023-07-28T05:10:28;17.90;99.10
53748;DHT22;39655;53.210;5.768;2023-07-28T05:12:53;17.90;99.10
53748;DHT22;39655;53.210;5.768;2023-07-28T05:15:19;18.00;99.20
53748;DHT22;39655;53.210;5.768;2023-07-28T05:17:45;18.00;99.10
53748;DHT22;39655;53.210;5.768;2023-07-28T05:20:11;18.00;99.10
53748;DHT22;39655;53.210;5.768;2023-07-28T05:22:37;18.00;99.20
53748;DHT22;39655;53.210;5.768;2023-07-28T05:25:03;18.10;99.20
53748;DHT22;39655;53.210;5.768;2023-07-28T05:27:30;18.10;99.20
53748;DHT22;39655;53.210;5.768;2023-07-28T05:29:56;18.00;99.10
53748;DHT22;39655;53.210;5.768;2023-07-28T05:32:22;18.10;99.10
53748;DHT22;39655;53.210;5.768;2023-07-28T05:34:48;18.00;99.10
53748;DHT22;39655;53.210;5.768;2023-07-28T05:37:13;18.00;99.10
53748;DHT22;39655;53.210;5.768;2023-07-28T05:39:39;18.00;99.10
53748;DHT22;39655;53.210;5.768;2023-07-28T05:42:05;18.10;99.10
53748;DHT22;39655;53.210;5.768;2023-07-28T05:44:31;18.00;99.10
53748;DHT22;39655;53.210;5.768;2023-07-28T05:46:57;18.00;99.10
53748;DHT22;39655;53.210;5.768;2023-07-28T05:49:23;18.00;99.10
53748;DHT22;39655;53.210;5.768;2023-07-28T05:51:49;18.10;99.10
53748;DHT22;39655;53.210;5.768;2023-07-28T05:54:15;18.00;99.10
53748;DHT22;39655;53.210;5.768;2023-07-28T05:56:41;18.10;99.10
53748;DHT22;39655;53.210;5.768;2023-07-28T05:59:07;18.00;99.00
53748;DHT22;39655;53.210;5.768;2023-07-28T06:01:33;18.10;99.00
53748;DHT22;39655;53.210;5.768;2023-07-28T06:03:59;18.10;99.00
53748;DHT22;39655;53.210;5.768;2023-07-28T06:06:25;18.10;99.00
53748;DHT22;39655;53.210;5.768;2023-07-28T06:08:54;18.10;99.00
53748;DHT22;39655;53.210;5.768;2023-07-28T06:11:20;18.10;98.90
53748;DHT22;39655;53.210;5.768;2023-07-28T06:13:46;18.10;99.00
53748;DHT22;39655;53.210;5.768;2023-07-28T06:16:13;18.10;99.00
53748;DHT22;39655;53.210;5.768;2023-07-28T06:18:39;18.10;99.00
53748;DHT22;39655;53.210;5.768;2023-07-28T06:21:04;18.10;98.90
53748;DHT22;39655;53.210;5.768;2023-07-28T06:23:30;18.20;98.90
53748;DHT22;39655;53.210;5.768;2023-07-28T06:25:56;18.10;98.80
53748;DHT22;39655;53.210;5.768;2023-07-28T06:28:22;18.10;98.80
53748;DHT22;39655;53.210;5.768;2023-07-28T06:30:47;18.10;98.80
53748;DHT22;39655;53.210;5.768;2023-07-28T06:33:18;18.10;98.70
53748;DHT22;39655;53.210;5.768;2023-07-28T06:35:43;18.10;98.60
53748;DHT22;39655;53.210;5.768;2023-07-28T06:38:09;18.10;98.60
53748;DHT22;39655;53.210;5.768;2023-07-28T06:40:35;18.10;98.50
53748;DHT22;39655;53.210;5.768;2023-07-28T06:43:01;18.10;98.50
53748;DHT22;39655;53.210;5.768;2023-07-28T06:45:27;18.10;98.60
53748;DHT22;39655;53.210;5.768;2023-07-28T06:47:52;18.30;98.50
53748;DHT22;39655;53.210;5.768;2023-07-28T06:50:18;18.20;98.50
53748;DHT22;39655;53.210;5.768;2023-07-28T06:52:43;18.40;98.50
53748;DHT22;39655;53.210;5.768;2023-07-28T06:55:09;18.40;98.50
53748;DHT22;39655;53.210;5.768;2023-07-28T06:57:35;18.40;98.50
53748;DHT22;39655;53.210;5.768;2023-07-28T07:00:00;18.50;98.40
53748;DHT22;39655;53.210;5.768;2023-07-28T07:02:26;18.50;98.30
53748;DHT22;39655;53.210;5.768;2023-07-28T07:04:52;18.40;98.20
53748;DHT22;39655;53.210;5.768;2023-07-28T07:07:17;18.40;98.20
53748;DHT22;39655;53.210;5.768;2023-07-28T07:09:43;18.50;98.10
53748;DHT22;39655;53.210;5.768;2023-07-28T07:12:09;18.40;98.10
53748;DHT22;39655;53.210;5.768;2023-07-28T07:14:35;18.40;97.90
53748;DHT22;39655;53.210;5.768;2023-07-28T07:17:00;18.40;97.90
53748;DHT22;39655;53.210;5.768;2023-07-28T07:19:29;18.40;97.90
53748;DHT22;39655;53.210;5.768;2023-07-28T07:21:55;18.40;97.90
53748;DHT22;39655;53.210;5.768;2023-07-28T07:24:21;18.40;97.90
53748;DHT22;39655;53.210;5.768;2023-07-28T07:26:47;18.60;97.90
53748;DHT22;39655;53.210;5.768;2023-07-28T07:29:13;18.60;97.80
53748;DHT22;39655;53.210;5.768;2023-07-28T07:31:39;18.60;97.80
53748;DHT22;39655;53.210;5.768;2023-07-28T07:34:04;18.60;97.80
53748;DHT22;39655;53.210;5.768;2023-07-28T07:36:30;18.60;97.60
53748;DHT22;39655;53.210;5.768;2023-07-28T07:38:56;18.50;97.60
53748;DHT22;39655;53.210;5.768;2023-07-28T07:41:24;18.60;97.70
53748;DHT22;39655;53.210;5.768;2023-07-28T07:43:52;18.60;97.40
53748;DHT22;39655;53.210;5.768;2023-07-28T07:46:19;18.70;97.40
53748;DHT22;39655;53.210;5.768;2023-07-28T07:48:45;18.70;97.20
53748;DHT22;39655;53.210;5.768;2023-07-28T07:51:12;18.70;96.90
53748;DHT22;39655;53.210;5.768;2023-07-28T07:53:38;18.70;97.00
53748;DHT22;39655;53.210;5.768;2023-07-28T07:56:04;18.70;96.90
53748;DHT22;39655;53.210;5.768;2023-07-28T07:58:30;18.70;96.80
53748;DHT22;39655;53.210;5.768;2023-07-28T08:00:56;18.90;96.80
53748;DHT22;39655;53.210;5.768;2023-07-28T08:03:21;18.90;96.80
53748;DHT22;39655;53.210;5.768;2023-07-28T08:05:47;19.00;96.80
53748;DHT22;39655;53.210;5.768;2023-07-28T08:08:13;19.10;96.70
53748;DHT22;39655;53.210;5.768;2023-07-28T08:10:43;19.10;96.50
53748;DHT22;39655;53.210;5.768;2023-07-28T08:13:09;19.10;96.40
53748;DHT22;39655;53.210;5.768;2023-07-28T08:15:34;19.10;96.40
53748;DHT22;39655;53.210;5.768;2023-07-28T08:18:00;19.10;96.20
53748;DHT22;39655;53.210;5.768;2023-07-28T08:20:26;19.20;96.10
53748;DHT22;39655;53.210;5.768;2023-07-28T08:22:52;19.20;95.80
53748;DHT22;39655;53.210;5.768;2023-07-28T08:25:18;19.20;95.50
53748;DHT22;39655;53.210;5.768;2023-07-28T08:27:44;19.30;95.50
53748;DHT22;39655;53.210;5.768;2023-07-28T08:30:10;19.50;95.30
53748;DHT22;39655;53.210;5.768;2023-07-28T08:32:36;19.50;94.10
53748;DHT22;39655;53.210;5.768;2023-07-28T08:35:02;19.60;93.00
53748;DHT22;39655;53.210;5.768;2023-07-28T08:37:28;19.80;93.00
53748;DHT22;39655;53.210;5.768;2023-07-28T08:39:54;19.90;91.60
53748;DHT22;39655;53.210;5.768;2023-07-28T08:42:21;20.00;91.70
53748;DHT22;39655;53.210;5.768;2023-07-28T08:44:48;20.10;90.50
53748;DHT22;39655;53.210;5.768;2023-07-28T08:47:17;20.10;90.60
53748;DHT22;39655;53.210;5.768;2023-07-28T08:49:44;20.30;90.40
53748;DHT22;39655;53.210;5.768;2023-07-28T08:52:10;20.30;89.90
53748;DHT22;39655;53.210;5.768;2023-07-28T08:54:35;20.40;89.80
53748;DHT22;39655;53.210;5.768;2023-07-28T08:57:01;20.40;88.40
53748;DHT22;39655;53.210;5.768;2023-07-28T08:59:29;20.30;88.90
53748;DHT22;39655;53.210;5.768;2023-07-28T09:01:56;20.40;89.20
53748;DHT22;39655;53.210;5.768;2023-07-28T09:04:23;20.60;89.50
53748;DHT22;39655;53.210;5.768;2023-07-28T09:06:49;20.80;88.40
53748;DHT22;39655;53.210;5.768;2023-07-28T09:09:17;20.80;86.60
53748;DHT22;39655;53.210;5.768;2023-07-28T09:11:46;20.90;86.70
53748;DHT22;39655;53.210;5.768;2023-07-28T09:14:14;21.00;86.60
53748;DHT22;39655;53.210;5.768;2023-07-28T09:16:40;21.10;86.70
53748;DHT22;39655;53.210;5.768;2023-07-28T09:19:07;21.10;86.00
53748;DHT22;39655;53.210;5.768;2023-07-28T09:21:33;21.00;84.90
53748;DHT22;39655;53.210;5.768;2023-07-28T09:24:00;20.90;85.30
53748;DHT22;39655;53.210;5.768;2023-07-28T09:26:47;20.90;84.90
53748;DHT22;39655;53.210;5.768;2023-07-28T09:29:19;20.90;84.80
53748;DHT22;39655;53.210;5.768;2023-07-28T09:31:46;21.00;84.40
53748;DHT22;39655;53.210;5.768;2023-07-28T09:34:12;20.90;84.30
53748;DHT22;39655;53.210;5.768;2023-07-28T09:36:39;20.90;84.50
53748;DHT22;39655;53.210;5.768;2023-07-28T09:39:06;20.90;84.70
53748;DHT22;39655;53.210;5.768;2023-07-28T09:41:35;20.80;84.70
53748;DHT22;39655;53.210;5.768;2023-07-28T09:44:05;20.80;85.30
53748;DHT22;39655;53.210;5.768;2023-07-28T09:46:33;21.00;84.90
53748;DHT22;39655;53.210;5.768;2023-07-28T09:49:05;21.10;83.70
53748;DHT22;39655;53.210;5.768;2023-07-28T09:51:34;21.20;84.00
53748;DHT22;39655;53.210;5.768;2023-07-28T09:54:07;21.30;83.40
53748;DHT22;39655;53.210;5.768;2023-07-28T09:56:37;21.40;82.20
53748;DHT22;39655;53.210;5.768;2023-07-28T09:59:10;21.50;82.30
53748;DHT22;39655;53.210;5.768;2023-07-28T10:01:38;21.50;81.30
53748;DHT22;39655;53.210;5.768;2023-07-28T10:04:04;21.60;82.10
53748;DHT22;39655;53.210;5.768;2023-07-28T10:06:30;21.50;82.30
53748;DHT22;39655;53.210;5.768;2023-07-28T10:08:59;21.60;82.40
53748;DHT22;39655;53.210;5.768;2023-07-28T10:11:25;21.70;81.10
53748;DHT22;39655;53.210;5.768;2023-07-28T10:13:54;21.70;81.60
53748;DHT22;39655;53.210;5.768;2023-07-28T10:16:20;22.00;81.10
53748;DHT22;39655;53.210;5.768;2023-07-28T10:18:54;22.00;79.80
53748;DHT22;39655;53.210;5.768;2023-07-28T10:21:27;22.00;80.00
53748;DHT22;39655;53.210;5.768;2023-07-28T10:23:58;22.00;80.20
53748;DHT22;39655;53.210;5.768;2023-07-28T10:26:42;22.00;79.10
53748;DHT22;39655;53.210;5.768;2023-07-28T10:29:15;22.10;79.90
53748;DHT22;39655;53.210;5.768;2023-07-28T10:31:54;22.10;79.20
53748;DHT22;39655;53.210;5.768;2023-07-28T10:34:21;22.30;80.20
53748;DHT22;39655;53.210;5.768;2023-07-28T10:36:55;22.30;78.30
53748;DHT22;39655;53.210;5.768;2023-07-28T10:39:21;22.10;78.10
53748;DHT22;39655;53.210;5.768;2023-07-28T10:42:13;22.20;79.80
53748;DHT22;39655;53.210;5.768;2023-07-28T10:44:39;22.50;78.60
53748;DHT22;39655;53.210;5.768;2023-07-28T10:47:10;22.60;77.90
53748;DHT22;39655;53.210;5.768;2023-07-28T10:49:36;22.60;76.90
53748;DHT22;39655;53.210;5.768;2023-07-28T10:52:01;22.60;76.90
53748;DHT22;39655;53.210;5.768;2023-07-28T10:54:27;22.80;77.30
53748;DHT22;39655;53.210;5.768;2023-07-28T10:56:52;23.00;76.80
53748;DHT22;39655;53.210;5.768;2023-07-28T10:59:18;23.10;75.50
53748;DHT22;39655;53.210;5.768;2023-07-28T11:01:44;23.20;75.30
53748;DHT22;39655;53.210;5.768;2023-07-28T11:06:38;23.30;75.80
53748;DHT22;39655;53.210;5.768;2023-07-28T11:09:06;23.50;74.50
53748;DHT22;39655;53.210;5.768;2023-07-28T11:11:32;23.50;74.40
53748;DHT22;39655;53.210;5.768;2023-07-28T11:13:58;23.50;73.90
53748;DHT22;39655;53.210;5.768;2023-07-28T11:16:24;23.50;73.30
53748;DHT22;39655;53.210;5.768;2023-07-28T11:18:50;23.60;74.70
53748;DHT22;39655;53.210;5.768;2023-07-28T11:21:22;23.80;73.70
53748;DHT22;39655;53.210;5.768;2023-07-28T11:23:47;23.80;72.60
53748;DHT22;39655;53.210;5.768;2023-07-28T11:26:13;23.60;72.70
53748;DHT22;39655;53.210;5.768;2023-07-28T11:28:39;23.50;74.30
53748;DHT22;39655;53.210;5.768;2023-07-28T11:31:05;23.60;74.40
53748;DHT22;39655;53.210;5.768;2023-07-28T11:33:31;23.80;73.90
53748;DHT22;39655;53.210;5.768;2023-07-28T11:35:57;23.90;72.90
53748;DHT22;39655;53.210;5.768;2023-07-28T11:38:23;24.10;72.40
53748;DHT22;39655;53.210;5.768;2023-07-28T11:40:49;24.20;70.00
53748;DHT22;39655;53.210;5.768;2023-07-28T11:43:17;24.10;70.80
53748;DHT22;39655;53.210;5.768;2023-07-28T11:45:43;24.30;68.90
53748;DHT22;39655;53.210;5.768;2023-07-28T11:48:09;24.50;67.50
53748;DHT22;39655;53.210;5.768;2023-07-28T11:50:40;24.80;67.30
53748;DHT22;39655;53.210;5.768;2023-07-28T11:53:08;24.80;66.90
53748;DHT22;39655;53.210;5.768;2023-07-28T11:55:39;24.50;66.20
53748;DHT22;39655;53.210;5.768;2023-07-28T11:58:08;24.20;67.60
53748;DHT22;39655;53.210;5.768;2023-07-28T12:00:39;24.10;67.50
53748;DHT22;39655;53.210;5.768;2023-07-28T12:03:12;24.10;68.40
53748;DHT22;39655;53.210;5.768;2023-07-28T12:05:39;24.20;67.30
53748;DHT22;39655;53.210;5.768;2023-07-28T12:08:05;24.30;67.50
53748;DHT22;39655;53.210;5.768;2023-07-28T12:10:33;24.60;66.80
53748;DHT22;39655;53.210;5.768;2023-07-28T12:13:04;24.80;65.20
53748;DHT22;39655;53.210;5.768;2023-07-28T12:15:31;24.70;64.90
53748;DHT22;39655;53.210;5.768;2023-07-28T12:18:16;24.90;64.20
53748;DHT22;39655;53.210;5.768;2023-07-28T12:20:49;25.50;65.00
53748;DHT22;39655;53.210;5.768;2023-07-28T12:23:22;25.40;61.80
53748;DHT22;39655;53.210;5.768;2023-07-28T12:25:49;25.30;61.90
53748;DHT22;39655;53.210;5.768;2023-07-28T12:28:15;25.00;62.40
53748;DHT22;39655;53.210;5.768;2023-07-28T12:30:41;25.00;62.90
53748;DHT22;39655;53.210;5.768;2023-07-28T12:33:07;25.10;63.90
53748;DHT22;39655;53.210;5.768;2023-07-28T12:35:34;25.30;64.20
53748;DHT22;39655;53.210;5.768;2023-07-28T12:38:04;25.20;62.90
53748;DHT22;39655;53.210;5.768;2023-07-28T12:40:31;25.00;63.80
53748;DHT22;39655;53.210;5.768;2023-07-28T12:42:58;25.50;63.20
53748;DHT22;39655;53.210;5.768;2023-07-28T12:45:24;26.00;60.60
53748;DHT22;39655;53.210;5.768;2023-07-28T12:47:55;26.20;59.50
53748;DHT22;39655;53.210;5.768;2023-07-28T12:50:21;26.20;58.80
53748;DHT22;39655;53.210;5.768;2023-07-28T12:52:48;26.20;59.50
53748;DHT22;39655;53.210;5.768;2023-07-28T12:55:14;26.30;59.40
53748;DHT22;39655;53.210;5.768;2023-07-28T12:57:41;26.40;59.10
53748;DHT22;39655;53.210;5.768;2023-07-28T13:00:07;26.70;57.80
53748;DHT22;39655;53.210;5.768;2023-07-28T13:02:41;26.70;57.00
53748;DHT22;39655;53.210;5.768;2023-07-28T13:05:08;26.90;54.90
53748;DHT22;39655;53.210;5.768;2023-07-28T13:07:36;26.30;57.40
53748;DHT22;39655;53.210;5.768;2023-07-28T13:10:02;25.80;59.90
53748;DHT22;39655;53.210;5.768;2023-07-28T13:12:29;25.40;61.30
53748;DHT22;39655;53.210;5.768;2023-07-28T13:14:55;25.10;62.30
53748;DHT22;39655;53.210;5.768;2023-07-28T13:17:20;25.60;61.10
53748;DHT22;39655;53.210;5.768;2023-07-28T13:19:46;25.90;60.20
53748;DHT22;39655;53.210;5.768;2023-07-28T13:22:12;26.20;59.60
53748;DHT22;39655;53.210;5.768;2023-07-28T13:24:37;26.50;59.90
53748;DHT22;39655;53.210;5.768;2023-07-28T13:27:04;26.80;59.20
53748;DHT22;39655;53.210;5.768;2023-07-28T13:29:33;27.00;57.90
53748;DHT22;39655;53.210;5.768;2023-07-28T13:31:59;27.10;58.70
53748;DHT22;39655;53.210;5.768;2023-07-28T13:34:28;27.50;56.80
53748;DHT22;39655;53.210;5.768;2023-07-28T13:36:55;27.60;56.70
53748;DHT22;39655;53.210;5.768;2023-07-28T13:39:21;27.10;56.90
53748;DHT22;39655;53.210;5.768;2023-07-28T13:41:47;26.60;57.50
53748;DHT22;39655;53.210;5.768;2023-07-28T13:44:13;26.10;58.30
53748;DHT22;39655;53.210;5.768;2023-07-28T13:46:39;25.60;60.70
53748;DHT22;39655;53.210;5.768;2023-07-28T13:49:04;25.60;60.70
53748;DHT22;39655;53.210;5.768;2023-07-28T13:51:31;25.60;60.60
53748;DHT22;39655;53.210;5.768;2023-07-28T13:53:56;25.70;61.40
53748;DHT22;39655;53.210;5.768;2023-07-28T13:56:22;26.10;60.30
53748;DHT22;39655;53.210;5.768;2023-07-28T13:58:47;26.50;59.40
53748;DHT22;39655;53.210;5.768;2023-07-28T14:01:13;26.50;59.30
53748;DHT22;39655;53.210;5.768;2023-07-28T14:03:39;26.30;59.30
53748;DHT22;39655;53.210;5.768;2023-07-28T14:06:04;25.80;60.10
53748;DHT22;39655;53.210;5.768;2023-07-28T14:08:30;25.50;60.60
53748;DHT22;39655;53.210;5.768;2023-07-28T14:10:55;25.20;61.90
53748;DHT22;39655;53.210;5.768;2023-07-28T14:13:21;25.10;61.70
53748;DHT22;39655;53.210;5.768;2023-07-28T14:15:47;24.70;63.30
53748;DHT22;39655;53.210;5.768;2023-07-28T14:18:13;24.60;63.80
53748;DHT22;39655;53.210;5.768;2023-07-28T14:20:38;24.60;63.50
53748;DHT22;39655;53.210;5.768;2023-07-28T14:23:26;24.70;64.10
53748;DHT22;39655;53.210;5.768;2023-07-28T14:25:53;24.90;62.90
53748;DHT22;39655;53.210;5.768;2023-07-28T14:28:19;25.10;62.80
53748;DHT22;39655;53.210;5.768;2023-07-28T14:30:45;25.40;61.60
53748;DHT22;39655;53.210;5.768;2023-07-28T14:33:16;25.30;61.80
53748;DHT22;39655;53.210;5.768;2023-07-28T14:35:44;25.10;62.10
53748;DHT22;39655;53.210;5.768;2023-07-28T14:38:11;25.00;63.70
53748;DHT22;39655;53.210;5.768;2023-07-28T14:40:37;25.50;62.80
53748;DHT22;39655;53.210;5.768;2023-07-28T14:43:04;26.40;60.70
53748;DHT22;39655;53.210;5.768;2023-07-28T14:45:30;26.30;59.60
53748;DHT22;39655;53.210;5.768;2023-07-28T14:47:56;26.50;59.60
53748;DHT22;39655;53.210;5.768;2023-07-28T14:50:22;27.10;59.80
53748;DHT22;39655;53.210;5.768;2023-07-28T14:52:48;27.70;59.80
53748;DHT22;39655;53.210;5.768;2023-07-28T14:55:14;28.30;55.40
53748;DHT22;39655;53.210;5.768;2023-07-28T14:57:39;27.70;56.80
53748;DHT22;39655;53.210;5.768;2023-07-28T15:00:05;27.10;59.20
53748;DHT22;39655;53.210;5.768;2023-07-28T15:02:33;26.60;60.70
53748;DHT22;39655;53.210;5.768;2023-07-28T15:05:02;26.60;62.80
53748;DHT22;39655;53.210;5.768;2023-07-28T15:07:27;27.20;60.60
53748;DHT22;39655;53.210;5.768;2023-07-28T15:09:53;27.20;60.20
53748;DHT22;39655;53.210;5.768;2023-07-28T15:12:19;26.40;62.40
53748;DHT22;39655;53.210;5.768;2023-07-28T15:14:44;26.10;64.10
53748;DHT22;39655;53.210;5.768;2023-07-28T15:17:10;26.10;63.90
53748;DHT22;39655;53.210;5.768;2023-07-28T15:19:36;26.30;64.10
53748;DHT22;39655;53.210;5.768;2023-07-28T15:22:02;26.40;63.70
53748;DHT22;39655;53.210;5.768;2023-07-28T15:24:28;26.10;65.00
53748;DHT22;39655;53.210;5.768;2023-07-28T15:26:53;26.10;64.50
53748;DHT22;39655;53.210;5.768;2023-07-28T15:29:20;26.00;64.80
53748;DHT22;39655;53.210;5.768;2023-07-28T15:31:45;25.70;66.50
53748;DHT22;39655;53.210;5.768;2023-07-28T15:34:11;25.60;66.80
53748;DHT22;39655;53.210;5.768;2023-07-28T15:36:37;25.10;68.40
53748;DHT22;39655;53.210;5.768;2023-07-28T15:39:03;24.30;70.50
53748;DHT22;39655;53.210;5.768;2023-07-28T15:41:29;23.80;72.10
53748;DHT22;39655;53.210;5.768;2023-07-28T15:43:55;23.60;73.70
53748;DHT22;39655;53.210;5.768;2023-07-28T15:46:20;23.60;73.80
53748;DHT22;39655;53.210;5.768;2023-07-28T15:48:46;23.70;74.00
53748;DHT22;39655;53.210;5.768;2023-07-28T15:51:12;23.70;74.10
53748;DHT22;39655;53.210;5.768;2023-07-28T15:53:39;23.80;74.00
53748;DHT22;39655;53.210;5.768;2023-07-28T15:56:04;24.10;72.60
53748;DHT22;39655;53.210;5.768;2023-07-28T15:58:30;24.60;70.80
53748;DHT22;39655;53.210;5.768;2023-07-28T16:00:56;24.60;70.70
53748;DHT22;39655;53.210;5.768;2023-07-28T16:03:22;24.40;71.40
53748;DHT22;39655;53.210;5.768;2023-07-28T16:05:48;23.90;73.00
53748;DHT22;39655;53.210;5.768;2023-07-28T16:08:13;23.70;74.40
53748;DHT22;39655;53.210;5.768;2023-07-28T16:10:39;23.70;74.70
53748;DHT22;39655;53.210;5.768;2023-07-28T16:13:04;23.80;74.70
53748;DHT22;39655;53.210;5.768;2023-07-28T16:15:30;23.90;74.00
53748;DHT22;39655;53.210;5.768;2023-07-28T16:17:56;23.70;74.00
53748;DHT22;39655;53.210;5.768;2023-07-28T16:20:21;23.50;74.80
53748;DHT22;39655;53.210;5.768;2023-07-28T16:22:47;23.10;75.50
53748;DHT22;39655;53.210;5.768;2023-07-28T16:25:13;22.90;76.90
53748;DHT22;39655;53.210;5.768;2023-07-28T16:27:38;22.80;76.70
53748;DHT22;39655;53.210;5.768;2023-07-28T16:30:05;22.80;77.10
53748;DHT22;39655;53.210;5.768;2023-07-28T16:32:32;22.80;77.30
53748;DHT22;39655;53.210;5.768;2023-07-28T16:34:58;23.10;76.50
53748;DHT22;39655;53.210;5.768;2023-07-28T16:37:24;23.10;76.10
53748;DHT22;39655;53.210;5.768;2023-07-28T16:39:49;23.20;76.00
53748;DHT22;39655;53.210;5.768;2023-07-28T16:42:17;23.20;75.80
53748;DHT22;39655;53.210;5.768;2023-07-28T16:44:43;23.10;76.10
53748;DHT22;39655;53.210;5.768;2023-07-28T16:47:09;23.10;77.10
53748;DHT22;39655;53.210;5.768;2023-07-28T16:49:34;23.00;76.40
53748;DHT22;39655;53.210;5.768;2023-07-28T16:52:00;23.10;77.30
53748;DHT22;39655;53.210;5.768;2023-07-28T16:54:26;23.60;75.50
53748;DHT22;39655;53.210;5.768;2023-07-28T16:56:56;24.20;72.40
53748;DHT22;39655;53.210;5.768;2023-07-28T16:59:23;24.40;71.60
53748;DHT22;39655;53.210;5.768;2023-07-28T17:01:48;24.30;71.40
53748;DHT22;39655;53.210;5.768;2023-07-28T17:04:14;24.20;71.80
53748;DHT22;39655;53.210;5.768;2023-07-28T17:06:39;24.30;71.60
53748;DHT22;39655;53.210;5.768;2023-07-28T17:09:05;24.30;71.10
53748;DHT22;39655;53.210;5.768;2023-07-28T17:11:31;24.50;71.10
53748;DHT22;39655;53.210;5.768;2023-07-28T17:13:57;24.50;69.60
53748;DHT22;39655;53.210;5.768;2023-07-28T17:16:23;24.40;70.30
53748;DHT22;39655;53.210;5.768;2023-07-28T17:18:50;24.20;70.30
53748;DHT22;39655;53.210;5.768;2023-07-28T17:21:16;23.90;71.80
53748;DHT22;39655;53.210;5.768;2023-07-28T17:23:42;24.00;72.00